sensor_id;sensor_type;location;lat;lon;timestamp;P1;durP1;ratioP1;P2;durP2;ratioP2
12369;SDS011;6249;52.128;9.986;2023-07-29T00:04:12;4.73;;;2.30;;
12369;SDS011;6249;52.128;9.986;2023-07-29T00:14:12;3.93;;;2.50;;
12369;SDS011;6249;52.128;9.986;2023-07-29T00:24:15;6.50;;;2.10;;
12369;SDS011;6249;52.128;9.986;2023-07-29T00:34:20;4.63;;;2.70;;
12369;SDS011;6249;52.128;9.986;2023-07-29T00:44:23;3.93;;;2.00;;
12369;SDS011;6249;52.128;9.986;2023-07-29T00:54:28;4.63;;;1.70;;
12369;SDS011;6249;52.128;9.986;2023-07-29T01:04:31;3.10;;;1.87;;
12369;SDS011;6249;52.128;9.986;2023-07-29T01:14:49;2.80;;;1.80;;
12369;SDS011;6249;52.128;9.986;2023-07-29T01:25:09;5.60;;;2.33;;
12369;SDS011;6249;52.128;9.986;2023-07-29T01:45:35;3.50;;;2.20;;
12369;SDS011;6249;52.128;9.986;2023-07-29T01:55:38;3.67;;;2.20;;
12369;SDS011;6249;52.128;9.986;2023-07-29T02:05:42;3.20;;;2.07;;
12369;SDS011;6249;52.128;9.986;2023-07-29T02:15:43;4.80;;;2.10;;
12369;SDS011;6249;52.128;9.986;2023-07-29T02:25:44;5.67;;;2.27;;
12369;SDS011;6249;52.128;9.986;2023-07-29T02:35:45;3.53;;;2.30;;
12369;SDS011;6249;52.128;9.986;2023-07-29T02:45:45;4.60;;;2.40;;
12369;SDS011;6249;52.128;9.986;2023-07-29T02:55:46;3.33;;;2.30;;
12369;SDS011;6249;52.128;9.986;2023-07-29T03:05:46;5.10;;;2.33;;
12369;SDS011;6249;52.128;9.986;2023-07-29T03:15:49;5.07;;;2.13;;
12369;SDS011;6249;52.128;9.986;2023-07-29T03:25:54;3.57;;;2.17;;
12369;SDS011;6249;52.128;9.986;2023-07-29T03:35:56;3.00;;;1.70;;
12369;SDS011;6249;52.128;9.986;2023-07-29T03:46:02;3.97;;;1.83;;
12369;SDS011;6249;52.128;9.986;2023-07-29T03:56:02;3.57;;;2.20;;
12369;SDS011;6249;52.128;9.986;2023-07-29T04:06:06;5.57;;;2.70;;
12369;SDS011;6249;52.128;9.986;2023-07-29T04:16:09;5.63;;;2.10;;
12369;SDS011;6249;52.128;9.986;2023-07-29T04:26:13;5.47;;;3.23;;
12369;SDS011;6249;52.128;9.986;2023-07-29T04:36:13;4.27;;;2.40;;
12369;SDS011;6249;52.128;9.986;2023-07-29T04:46:14;3.80;;;2.30;;
12369;SDS011;6249;52.128;9.986;2023-07-29T04:56:15;3.00;;;1.80;;
12369;SDS011;6249;52.128;9.986;2023-07-29T05:06:15;8.90;;;3.20;;
12369;SDS011;6249;52.128;9.986;2023-07-29T05:16:16;7.63;;;2.60;;
12369;SDS011;6249;52.128;9.986;2023-07-29T05:26:16;3.90;;;2.80;;
12369;SDS011;6249;52.128;9.986;2023-07-29T05:36:17;6.07;;;2.97;;
12369;SDS011;6249;52.128;9.986;2023-07-29T05:46:18;5.33;;;3.40;;
12369;SDS011;6249;52.128;9.986;2023-07-29T05:56:18;5.63;;;3.07;;
12369;SDS011;6249;52.128;9.986;2023-07-29T06:06:21;4.67;;;2.90;;
12369;SDS011;6249;52.128;9.986;2023-07-29T06:16:23;5.83;;;2.80;;
12369;SDS011;6249;52.128;9.986;2023-07-29T06:26:24;5.03;;;1.97;;
12369;SDS011;6249;52.128;9.986;2023-07-29T06:36:27;2.00;;;0.80;;
12369;SDS011;6249;52.128;9.986;2023-07-29T06:46:28;2.27;;;0.93;;
12369;SDS011;6249;52.128;9.986;2023-07-29T06:56:28;1.67;;;0.50;;
12369;SDS011;6249;52.128;9.986;2023-07-29T07:06:29;2.00;;;0.80;;
12369;SDS011;6249;52.128;9.986;2023-07-29T07:16:32;1.93;;;0.60;;
12369;SDS011;6249;52.128;9.986;2023-07-29T07:26:36;3.20;;;0.90;;
12369;SDS011;6249;52.128;9.986;2023-07-29T07:36:37;8.37;;;4.53;;
12369;SDS011;6249;52.128;9.986;2023-07-29T07:46:37;2.70;;;0.90;;
12369;SDS011;6249;52.128;9.986;2023-07-29T07:56:40;3.37;;;0.90;;
12369;SDS011;6249;52.128;9.986;2023-07-29T08:06:41;2.60;;;0.70;;
12369;SDS011;6249;52.128;9.986;2023-07-29T08:16:42;3.10;;;1.17;;
12369;SDS011;6249;52.128;9.986;2023-07-29T08:26:42;2.30;;;0.80;;
12369;SDS011;6249;52.128;9.986;2023-07-29T08:36:45;6.23;;;1.17;;
12369;SDS011;6249;52.128;9.986;2023-07-29T08:46:49;6.03;;;1.10;;
12369;SDS011;6249;52.128;9.986;2023-07-29T08:56:53;2.40;;;1.00;;
12369;SDS011;6249;52.128;9.986;2023-07-29T09:06:56;3.97;;;1.10;;
12369;SDS011;6249;52.128;9.986;2023-07-29T09:17:01;2.73;;;1.10;;
12369;SDS011;6249;52.128;9.986;2023-07-29T09:27:02;2.70;;;1.40;;
12369;SDS011;6249;52.128;9.986;2023-07-29T09:37:02;3.90;;;2.33;;
12369;SDS011;6249;52.128;9.986;2023-07-29T09:47:06;4.10;;;2.90;;
12369;SDS011;6249;52.128;9.986;2023-07-29T09:57:06;4.63;;;3.57;;
12369;SDS011;6249;52.128;9.986;2023-07-29T10:07:08;7.83;;;6.17;;
12369;SDS011;6249;52.128;9.986;2023-07-29T10:17:10;12.07;;;7.50;;
12369;SDS011;6249;52.128;9.986;2023-07-29T10:27:11;9.07;;;7.43;;
12369;SDS011;6249;52.128;9.986;2023-07-29T10:37:15;10.50;;;7.50;;
12369;SDS011;6249;52.128;9.986;2023-07-29T10:47:17;12.30;;;7.13;;
12369;SDS011;6249;52.128;9.986;2023-07-29T10:57:31;10.00;;;7.50;;
12369;SDS011;6249;52.128;9.986;2023-07-29T11:07:42;6.90;;;5.70;;
12369;SDS011;6249;52.128;9.986;2023-07-29T11:27:58;7.70;;;5.07;;
12369;SDS011;6249;52.128;9.986;2023-07-29T11:38:04;6.73;;;4.73;;
12369;SDS011;6249;52.128;9.986;2023-07-29T11:48:09;5.70;;;4.90;;
12369;SDS011;6249;52.128;9.986;2023-07-29T11:58:09;4.20;;;3.10;;
12369;SDS011;6249;52.128;9.986;2023-07-29T12:08:10;4.43;;;2.70;;
12369;SDS011;6249;52.128;9.986;2023-07-29T12:18:11;3.20;;;1.70;;
12369;SDS011;6249;52.128;9.986;2023-07-29T12:28:12;4.07;;;1.60;;
12369;SDS011;6249;52.128;9.986;2023-07-29T12:38:20;2.40;;;1.00;;
12369;SDS011;6249;52.128;9.986;2023-07-29T12:48:21;3.37;;;1.50;;
12369;SDS011;6249;52.128;9.986;2023-07-29T12:58:22;3.28;;;1.40;;
12369;SDS011;6249;52.128;9.986;2023-07-29T13:08:22;4.37;;;1.30;;
12369;SDS011;6249;52.128;9.986;2023-07-29T13:18:25;2.50;;;0.90;;
12369;SDS011;6249;52.128;9.986;2023-07-29T13:28:25;5.43;;;1.13;;
12369;SDS011;6249;52.128;9.986;2023-07-29T13:38:26;5.43;;;0.90;;
12369;SDS011;6249;52.128;9.986;2023-07-29T13:48:29;4.07;;;1.23;;
12369;SDS011;6249;52.128;9.986;2023-07-29T13:58:30;3.17;;;1.20;;
12369;SDS011;6249;52.128;9.986;2023-07-29T14:08:33;2.83;;;1.10;;
12369;SDS011;6249;52.128;9.986;2023-07-29T14:18:35;3.40;;;1.10;;
12369;SDS011;6249;52.128;9.986;2023-07-29T14:28:42;3.90;;;2.37;;
12369;SDS011;6249;52.128;9.986;2023-07-29T14:38:43;4.90;;;1.23;;
12369;SDS011;6249;52.128;9.986;2023-07-29T14:48:46;2.63;;;0.90;;
12369;SDS011;6249;52.128;9.986;2023-07-29T14:58:47;2.70;;;1.10;;
12369;SDS011;6249;52.128;9.986;2023-07-29T15:08:49;3.47;;;1.53;;
12369;SDS011;6249;52.128;9.986;2023-07-29T15:18:50;3.07;;;1.30;;
12369;SDS011;6249;52.128;9.986;2023-07-29T15:28:51;3.23;;;1.33;;
12369;SDS011;6249;52.128;9.986;2023-07-29T15:38:54;2.93;;;1.43;;
12369;SDS011;6249;52.128;9.986;2023-07-29T15:48:57;4.80;;;2.30;;
12369;SDS011;6249;52.128;9.986;2023-07-29T15:58:59;2.93;;;1.67;;
12369;SDS011;6249;52.128;9.986;2023-07-29T16:09:00;2.67;;;1.47;;
12369;SDS011;6249;52.128;9.986;2023-07-29T16:19:06;3.27;;;2.00;;
12369;SDS011;6249;52.128;9.986;2023-07-29T16:29:09;6.30;;;3.50;;
12369;SDS011;6249;52.128;9.986;2023-07-29T16:39:09;4.37;;;1.80;;
12369;SDS011;6249;52.128;9.986;2023-07-29T16:49:10;3.63;;;2.10;;
12369;SDS011;6249;52.128;9.986;2023-07-29T16:59:10;5.60;;;3.57;;
12369;SDS011;6249;52.128;9.986;2023-07-29T17:09:11;4.60;;;2.80;;
12369;SDS011;6249;52.128;9.986;2023-07-29T17:19:12;4.47;;;1.90;;
12369;SDS011;6249;52.128;9.986;2023-07-29T17:29:13;6.00;;;2.20;;
12369;SDS011;6249;52.128;9.986;2023-07-29T17:39:16;4.50;;;2.30;;
12369;SDS011;6249;52.128;9.986;2023-07-29T17:49:17;3.80;;;2.10;;
12369;SDS011;6249;52.128;9.986;2023-07-29T17:59:20;4.10;;;2.33;;
12369;SDS011;6249;52.128;9.986;2023-07-29T18:09:21;4.40;;;2.50;;
12369;SDS011;6249;52.128;9.986;2023-07-29T18:19:21;3.30;;;1.87;;
12369;SDS011;6249;52.128;9.986;2023-07-29T18:29:27;4.07;;;1.93;;
12369;SDS011;6249;52.128;9.986;2023-07-29T18:39:27;3.93;;;1.70;;
12369;SDS011;6249;52.128;9.986;2023-07-29T18:49:30;5.20;;;2.30;;
12369;SDS011;6249;52.128;9.986;2023-07-29T18:59:31;4.03;;;1.80;;
12369;SDS011;6249;52.128;9.986;2023-07-29T19:09:32;2.67;;;1.30;;
12369;SDS011;6249;52.128;9.986;2023-07-29T19:19:35;3.47;;;1.63;;
12369;SDS011;6249;52.128;9.986;2023-07-29T19:29:40;3.80;;;1.67;;
12369;SDS011;6249;52.128;9.986;2023-07-29T19:39:41;5.10;;;1.83;;
12369;SDS011;6249;52.128;9.986;2023-07-29T19:49:44;3.30;;;1.60;;
12369;SDS011;6249;52.128;9.986;2023-07-29T19:59:44;3.47;;;1.50;;
12369;SDS011;6249;52.128;9.986;2023-07-29T20:09:45;4.70;;;1.47;;
12369;SDS011;6249;52.128;9.986;2023-07-29T20:19:48;2.83;;;1.43;;
12369;SDS011;6249;52.128;9.986;2023-07-29T20:29:51;3.07;;;1.80;;
12369;SDS011;6249;52.128;9.986;2023-07-29T20:39:54;3.03;;;1.37;;
12369;SDS011;6249;52.128;9.986;2023-07-29T20:49:57;4.00;;;1.63;;
12369;SDS011;6249;52.128;9.986;2023-07-29T20:59:57;2.50;;;1.03;;
12369;SDS011;6249;52.128;9.986;2023-07-29T21:09:58;2.93;;;1.37;;
12369;SDS011;6249;52.128;9.986;2023-07-29T21:20:02;6.07;;;2.23;;
12369;SDS011;6249;52.128;9.986;2023-07-29T21:30:03;2.60;;;1.30;;
12369;SDS011;6249;52.128;9.986;2023-07-29T21:40:04;4.30;;;1.53;;
12369;SDS011;6249;52.128;9.986;2023-07-29T21:50:05;2.67;;;1.23;;
12369;SDS011;6249;52.128;9.986;2023-07-29T22:00:06;3.00;;;1.30;;
12369;SDS011;6249;52.128;9.986;2023-07-29T22:10:08;2.97;;;1.50;;
12369;SDS011;6249;52.128;9.986;2023-07-29T22:20:09;7.30;;;1.80;;
12369;SDS011;6249;52.128;9.986;2023-07-29T22:30:13;3.10;;;1.70;;
12369;SDS011;6249;52.128;9.986;2023-07-29T22:40:14;3.67;;;1.73;;
12369;SDS011;6249;52.128;9.986;2023-07-29T22:50:17;4.10;;;1.40;;
12369;SDS011;6249;52.128;9.986;2023-07-29T23:00:20;3.30;;;1.30;;
12369;SDS011;6249;52.128;9.986;2023-07-29T23:10:23;3.50;;;1.60;;
12369;SDS011;6249;52.128;9.986;2023-07-29T23:20:28;3.03;;;1.70;;
12369;SDS011;6249;52.128;9.986;2023-07-29T23:30:37;3.30;;;1.80;;
12369;SDS011;6249;52.128;9.986;2023-07-29T23:40:42;3.43;;;1.90;;
12369;SDS011;6249;52.128;9.986;2023-07-29T23:50:45;5.43;;;1.87;;
